HAHCR LHBP-LHBS
Flight info
| Callsign | HAHCR |
|---|---|
| Flight time | 0h -7m |
| Altitude | 1500 |
| Route | TSEPEL |
| Aircraft | EC35/M-SBGRW/S |
Departure
| Time | 2026-05-05 19:03 |
|---|---|
| Airport | Budapest Liszt Ferenc International Airport (LHBP) |
Arrival
| Time | 2026-05-05 18:55 |
|---|---|
| Airport | Budaörs Airfield (LHBS) |
| Time | Latitude | Longitude | Altitude | Speed | Heading |
|---|---|---|---|---|---|
| 2026-05-05 18:55 | 47.43554 | 19.23271 | 437 ft | 0 kts | 173° |
| 2026-05-05 19:01 | 47.43544 | 19.23275 | 443 ft | 11 kts | 167° |
| 2026-05-05 19:01 | 47.43452 | 19.23091 | 489 ft | 60 kts | 315° |
| 2026-05-05 19:01 | 47.43741 | 19.23235 | 488 ft | 52 kts | 86° |
| 2026-05-05 19:01 | 47.43758 | 19.23574 | 438 ft | 2 kts | 40° |
| 2026-05-05 19:02 | 47.43776 | 19.23669 | 458 ft | 45 kts | 78° |
| 2026-05-05 19:02 | 47.44214 | 19.23214 | 496 ft | 124 kts | 312° |
| 2026-05-05 19:02 | 47.44839 | 19.22228 | 897 ft | 130 kts | 309° |
| 2026-05-05 19:03 | 47.45476 | 19.21382 | 1472 ft | 124 kts | 314° |
| 2026-05-05 19:03 | 47.46091 | 19.20353 | 1483 ft | 140 kts | 289° |
| 2026-05-05 19:03 | 47.46109 | 19.18902 | 1330 ft | 148 kts | 257° |
| 2026-05-05 19:03 | 47.45941 | 19.17358 | 1144 ft | 150 kts | 258° |
| 2026-05-05 19:04 | 47.45887 | 19.15951 | 1513 ft | 132 kts | 264° |
| 2026-05-05 19:04 | 47.45854 | 19.14585 | 1656 ft | 134 kts | 264° |
| 2026-05-05 19:04 | 47.45816 | 19.13190 | 1618 ft | 141 kts | 261° |
| 2026-05-05 19:04 | 47.45659 | 19.11713 | 1453 ft | 145 kts | 254° |
| 2026-05-05 19:05 | 47.45398 | 19.10294 | 1449 ft | 142 kts | 254° |
| 2026-05-05 19:05 | 47.45263 | 19.08817 | 1293 ft | 148 kts | 263° |
| 2026-05-05 19:05 | 47.45266 | 19.07354 | 1456 ft | 128 kts | 261° |
| 2026-05-05 19:05 | 47.45182 | 19.06183 | 1481 ft | 107 kts | 253° |
| 2026-05-05 19:06 | 47.45032 | 19.05063 | 1291 ft | 115 kts | 251° |
| 2026-05-05 19:06 | 47.44768 | 19.03938 | 1153 ft | 113 kts | 243° |
| 2026-05-05 19:06 | 47.44550 | 19.02873 | 1129 ft | 108 kts | 258° |
| 2026-05-05 19:06 | 47.44782 | 19.01780 | 757 ft | 115 kts | 286° |
| 2026-05-05 19:07 | 47.45029 | 19.00793 | 713 ft | 87 kts | 268° |
| 2026-05-05 19:07 | 47.45081 | 18.99973 | 696 ft | 73 kts | 254° |
| 2026-05-05 19:07 | 47.45027 | 18.99301 | 723 ft | 55 kts | 239° |
| 2026-05-05 19:07 | 47.44945 | 18.98889 | 615 ft | 32 kts | 230° |
| 2026-05-05 19:08 | 47.44902 | 18.98652 | 502 ft | 21 kts | 223° |
| 2026-05-05 19:08 | 47.44851 | 18.98531 | 438 ft | 6 kts | 197° |
| 2026-05-05 19:08 | 47.44805 | 18.98501 | 418 ft | 0 kts | 196° |